Mc Cook Ben Nelson Regional Airport
KMCK : rendu visible

Aérodrome :











RETROUVEZ-NOUS SUR...

 
LOGIN :

S'inscrire | Disclaimer

   EN    FR    IT 

 









Légende :    VFR   VFR Marginal   IFR   IFR Intensif   IFR Très Intensif
Visi : 
Plafond : 
>= 8 km
>= 3000ft
5 à 8 km
1000 à 3000 ft
1500m à 5 km
500 à 1000 ft
800 à 1500m
200 à 500 ft
< 800m
< 200 ft
Symboles :   Orages  Brouillard  Fortes neiges  Fortes précipitations  Vent > 20 kt






- Altitude de l'aérodrome : 2583 ft


KMCK - Mc Cook Ben Nelson Regional

DERNIER METAR :
  • 181553Z AUTO 30007KT 10SM CLR M03/M09 A3033 RMK AO2 SLP299 T10331094

METARs EXPIRÉS :
  • 181453Z AUTO 28005KT 10SM CLR M04/M11 A3032 RMK AO2 SLP297 T10441106 51041
  • 181353Z AUTO 31013KT 10SM CLR M06/M11 A3028 RMK AO2 SLP285 T10561111

TAF KMCK
Valide du 18 à 12h jusqu'au 19 à 12h UTC


181120Z 1812/1912 30012G18KT P6SM SKC WS020/33045KT
FM181600 31010KT P6SM FEW250
FM190000 VRB05KT P6SM FEW250



MET'MAP, la Météo Aéronautique d'un coup d'oeil ! - Copyright ORBIFLY Décembre 2007 - Disclaimer

ORBIFLY MET'MAP TEAM :

Programmation & Développement : Alexandra Zaïnal
Sur une idée originale de : Baudouin d'Aumeries
Assistance à la programmation : Marc-Olivier Méhu
Soutien technique & logistique : Manuel Goepfert

Contact : metmap@orbifly.com




SOURCES & CREDITS :

   NOAA       Earth
Advisory